Time;durP1;ratioP1;P1;durP2;ratioP2;P2;SDS_P1;SDS_P2;PMS_P1;PMS_P2;Temp;Humidity;BMP_temperature;BMP_pressure;BME280_temperature;BME280_humidity;BME280_pressure;Samples;Min_cycle;Max_cycle;Signal;HPM_P1;HPM_P2
2021/07/30 00:00:10;;;;;;;;;;;10.50;92.70;;;;;;5093335;28;19947;-62
2021/07/30 00:02:39;;;;;;;;;;;10.60;92.00;;;;;;5093254;28;19909;-64
2021/07/30 00:05:06;;;;;;;;;;;10.60;92.00;;;;;;5093451;28;19916;-65
2021/07/30 00:07:33;;;;;;;;;;;10.70;92.00;;;;;;5096321;28;20597;-64
2021/07/30 00:09:59;;;;;;;;;;;10.70;91.70;;;;;;5096676;28;20003;-64
2021/07/30 00:12:26;;;;;;;;;;;10.80;91.80;;;;;;5096221;28;19911;-63
2021/07/30 00:14:53;;;;;;;;;;;10.80;91.80;;;;;;5096205;28;20350;-64
2021/07/30 00:17:19;;;;;;;;;;;10.80;91.70;;;;;;5096363;28;19908;-64
2021/07/30 00:19:46;;;;;;;;;;;10.90;91.10;;;;;;5096056;28;19908;-64
2021/07/30 00:22:13;;;;;;;;;;;10.90;91.30;;;;;;5096282;28;19978;-64
2021/07/30 00:24:39;;;;;;;;;;;11.00;91.10;;;;;;5095853;28;19922;-64
2021/07/30 00:27:06;;;;;;;;;;;11.10;91.20;;;;;;5095928;28;19961;-64
2021/07/30 00:29:32;;;;;;;;;;;11.20;91.50;;;;;;5095991;28;19958;-64
2021/07/30 00:31:59;;;;;;;;;;;11.20;91.30;;;;;;5095998;28;20320;-63
2021/07/30 00:34:26;;;;;;;;;;;11.20;91.20;;;;;;5096102;28;20322;-64
2021/07/30 00:36:52;;;;;;;;;;;11.30;91.30;;;;;;5096051;28;20381;-64
2021/07/30 00:39:19;;;;;;;;;;;11.30;90.70;;;;;;5095854;28;19908;-64
2021/07/30 00:41:46;;;;;;;;;;;11.30;90.60;;;;;;5095354;28;19959;-64
2021/07/30 00:44:12;;;;;;;;;;;11.40;90.60;;;;;;5095583;28;19920;-64
2021/07/30 00:46:39;;;;;;;;;;;11.40;90.90;;;;;;5095808;28;19908;-66
2021/07/30 00:49:06;;;;;;;;;;;11.50;91.10;;;;;;5095780;28;19908;-64
2021/07/30 00:51:33;;;;;;;;;;;11.60;90.50;;;;;;5095358;28;19908;-64
2021/07/30 00:53:59;;;;;;;;;;;11.60;90.50;;;;;;5095626;28;19908;-64
2021/07/30 00:56:26;;;;;;;;;;;11.70;89.90;;;;;;5095376;28;20404;-64
2021/07/30 00:58:53;;;;;;;;;;;11.80;89.30;;;;;;5095395;28;20278;-64
2021/07/30 01:01:20;;;;;;;;;;;11.80;89.60;;;;;;5095453;28;19908;-64
2021/07/30 01:03:46;;;;;;;;;;;11.90;89.20;;;;;;5095026;28;19908;-64
2021/07/30 01:06:13;;;;;;;;;;;11.90;89.80;;;;;;5095487;28;19916;-66
2021/07/30 01:08:40;;;;;;;;;;;12.00;89.00;;;;;;5095365;28;20001;-66
2021/07/30 01:11:06;;;;;;;;;;;12.30;89.80;;;;;;5094950;28;19908;-65
2021/07/30 01:13:33;;;;;;;;;;;12.50;88.10;;;;;;5095021;28;19920;-66
2021/07/30 01:16:00;;;;;;;;;;;12.90;85.00;;;;;;5095273;28;19916;-67
2021/07/30 01:18:26;;;;;;;;;;;13.20;83.60;;;;;;5094262;28;19908;-66
2021/07/30 01:21:08;;;;;;;;;;;13.20;81.40;;;;;;5095035;28;19928;-66
2021/07/30 01:23:34;;;;;;;;;;;13.50;80.50;;;;;;5094597;28;20008;-65
2021/07/30 01:26:01;;;;;;;;;;;13.90;78.30;;;;;;5094775;28;20326;-65
2021/07/30 01:28:31;;;;;;;;;;;14.00;78.00;;;;;;5094964;28;20406;-65
2021/07/30 01:30:59;;;;;;;;;;;13.90;77.70;;;;;;5094925;28;19908;-65
2021/07/30 01:33:25;;;;;;;;;;;13.90;76.80;;;;;;5094865;28;19908;-63
2021/07/30 01:35:52;;;;;;;;;;;13.80;77.50;;;;;;5094431;28;19955;-66
2021/07/30 01:38:18;;;;;;;;;;;13.70;78.40;;;;;;5094562;28;19908;-63
2021/07/30 01:40:45;;;;;;;;;;;13.60;78.30;;;;;;5094871;28;19908;-63
2021/07/30 01:43:12;;;;;;;;;;;13.40;79.50;;;;;;5094444;28;19908;-62
2021/07/30 01:45:38;;;;;;;;;;;13.40;79.50;;;;;;5094254;28;19924;-64
2021/07/30 01:48:05;;;;;;;;;;;13.40;80.40;;;;;;5094434;28;20315;-65
2021/07/30 01:50:32;;;;;;;;;;;13.50;80.60;;;;;;5094370;28;19970;-65
2021/07/30 01:52:59;;;;;;;;;;;13.70;77.70;;;;;;5094369;28;19955;-65
2021/07/30 01:55:25;;;;;;;;;;;13.60;76.60;;;;;;5094346;28;19908;-65
2021/07/30 01:57:52;;;;;;;;;;;13.70;77.30;;;;;;5093966;28;19915;-63
2021/07/30 02:00:19;;;;;;;;;;;14.00;74.90;;;;;;5094387;28;19908;-64
2021/07/30 02:02:47;;;;;;;;;;;14.10;75.30;;;;;;5094374;28;19967;-64
2021/07/30 02:05:14;;;;;;;;;;;14.00;74.10;;;;;;5094094;28;19935;-67
2021/07/30 02:07:40;;;;;;;;;;;14.00;75.40;;;;;;5093794;28;19908;-64
2021/07/30 02:10:07;;;;;;;;;;;13.80;75.40;;;;;;5093893;28;20259;-62
2021/07/30 02:15:21;;;;;;;;;;;14.00;76.00;;;;;;5082490;28;19979;-66
2021/07/30 02:17:47;;;;;;;;;;;14.10;75.20;;;;;;5093705;28;19952;-63
2021/07/30 02:20:14;;;;;;;;;;;14.10;74.90;;;;;;5092596;28;20304;-66
2021/07/30 02:22:41;;;;;;;;;;;14.10;74.10;;;;;;5093900;28;19908;-67
2021/07/30 02:25:08;;;;;;;;;;;14.10;73.90;;;;;;5093682;28;19924;-64
2021/07/30 02:27:34;;;;;;;;;;;14.00;74.00;;;;;;5092110;28;19969;-64
2021/07/30 02:30:01;;;;;;;;;;;14.00;75.90;;;;;;5093823;28;20078;-64
2021/07/30 02:32:28;;;;;;;;;;;14.10;75.70;;;;;;5093784;28;19908;-64
2021/07/30 02:34:54;;;;;;;;;;;14.40;75.40;;;;;;5093645;28;19915;-66
2021/07/30 02:37:21;;;;;;;;;;;14.40;73.30;;;;;;5093258;28;19909;-65
2021/07/30 02:39:48;;;;;;;;;;;14.40;73.20;;;;;;5093282;28;19908;-65
2021/07/30 02:42:14;;;;;;;;;;;14.40;73.80;;;;;;5093432;28;19992;-65
2021/07/30 02:44:41;;;;;;;;;;;14.50;74.30;;;;;;5092962;28;20046;-63
2021/07/30 02:47:07;;;;;;;;;;;14.30;75.60;;;;;;5093427;28;19916;-62
2021/07/30 02:49:34;;;;;;;;;;;14.70;74.20;;;;;;5093159;28;20240;-62
2021/07/30 02:52:01;;;;;;;;;;;14.70;74.00;;;;;;5093458;28;19908;-63
2021/07/30 02:54:27;;;;;;;;;;;14.80;75.20;;;;;;5093389;28;20346;-62
2021/07/30 02:56:54;;;;;;;;;;;14.80;77.00;;;;;;5093072;28;19908;-64
2021/07/30 02:59:21;;;;;;;;;;;15.00;77.60;;;;;;5091812;28;19908;-63
2021/07/30 03:01:47;;;;;;;;;;;15.10;77.30;;;;;;5092815;28;20320;-63
2021/07/30 03:04:14;;;;;;;;;;;15.10;78.30;;;;;;5092972;28;19916;-64
2021/07/30 03:06:40;;;;;;;;;;;14.90;78.30;;;;;;5093167;28;19908;-64
2021/07/30 03:09:07;;;;;;;;;;;15.00;79.10;;;;;;5092926;28;19943;-63
2021/07/30 03:11:34;;;;;;;;;;;14.80;80.10;;;;;;5092895;28;19912;-63
2021/07/30 03:14:00;;;;;;;;;;;14.80;79.40;;;;;;5092926;28;19908;-64
2021/07/30 03:16:27;;;;;;;;;;;14.80;80.40;;;;;;5093010;28;19908;-64
2021/07/30 03:18:54;;;;;;;;;;;14.80;80.80;;;;;;5092985;28;19912;-64
2021/07/30 03:21:20;;;;;;;;;;;14.90;81.20;;;;;;5092681;28;19930;-65
2021/07/30 03:23:47;;;;;;;;;;;14.90;81.40;;;;;;5092313;28;19914;-63
2021/07/30 03:26:14;;;;;;;;;;;14.90;81.00;;;;;;5092300;28;20322;-66
2021/07/30 03:28:40;;;;;;;;;;;14.90;81.30;;;;;;5092201;28;19957;-64
2021/07/30 03:31:07;;;;;;;;;;;14.90;81.40;;;;;;5092774;28;19908;-67
2021/07/30 03:33:33;;;;;;;;;;;14.80;81.90;;;;;;5092214;28;19912;-64
2021/07/30 03:36:00;;;;;;;;;;;14.80;82.50;;;;;;5092341;28;19908;-63
2021/07/30 03:38:27;;;;;;;;;;;14.70;82.40;;;;;;5092302;28;19915;-65
2021/07/30 03:40:53;;;;;;;;;;;14.80;82.70;;;;;;5091861;28;19935;-64
2021/07/30 03:43:20;;;;;;;;;;;14.90;82.70;;;;;;5092109;28;19918;-66
2021/07/30 03:45:47;;;;;;;;;;;15.00;83.40;;;;;;5090783;28;19920;-67
2021/07/30 03:48:13;;;;;;;;;;;15.10;82.40;;;;;;5092301;28;19911;-65
2021/07/30 03:50:40;;;;;;;;;;;15.10;82.20;;;;;;5092520;28;19915;-63
2021/07/30 03:53:07;;;;;;;;;;;15.10;82.70;;;;;;5092460;28;19908;-65
2021/07/30 03:55:33;;;;;;;;;;;15.10;82.90;;;;;;5091935;28;19920;-63
2021/07/30 03:58:00;;;;;;;;;;;15.10;84.10;;;;;;5092831;28;20270;-63
2021/07/30 04:00:27;;;;;;;;;;;15.10;83.90;;;;;;5092629;28;19924;-63
2021/07/30 04:02:54;;;;;;;;;;;15.00;84.30;;;;;;5092319;28;20386;-64
2021/07/30 04:05:20;;;;;;;;;;;15.00;84.60;;;;;;5092537;28;19923;-64
2021/07/30 04:07:47;;;;;;;;;;;15.00;84.80;;;;;;5092271;28;19908;-63
2021/07/30 04:10:13;;;;;;;;;;;15.10;86.00;;;;;;5092492;28;19912;-67
2021/07/30 04:12:40;;;;;;;;;;;15.20;85.10;;;;;;5092497;28;19908;-66
2021/07/30 04:15:07;;;;;;;;;;;15.20;85.00;;;;;;5092383;28;19963;-65
2021/07/30 04:17:33;;;;;;;;;;;15.00;85.60;;;;;;5092300;28;19912;-67
2021/07/30 04:20:00;;;;;;;;;;;15.10;85.20;;;;;;5091051;28;19915;-65
2021/07/30 04:22:27;;;;;;;;;;;15.00;85.60;;;;;;5092372;28;19909;-67
2021/07/30 04:24:54;;;;;;;;;;;15.00;85.10;;;;;;5091926;28;19925;-67
2021/07/30 04:27:20;;;;;;;;;;;14.90;85.60;;;;;;5092221;28;19908;-67
2021/07/30 04:29:47;;;;;;;;;;;14.80;86.70;;;;;;5091827;28;19915;-65
2021/07/30 04:32:14;;;;;;;;;;;14.80;86.50;;;;;;5091815;28;19951;-65
2021/07/30 04:34:41;;;;;;;;;;;14.80;86.80;;;;;;5090745;28;19908;-65
2021/07/30 04:37:07;;;;;;;;;;;14.80;87.30;;;;;;5092048;28;19908;-64
2021/07/30 04:39:37;;;;;;;;;;;14.80;87.70;;;;;;5091786;28;19931;-65
2021/07/30 04:42:04;;;;;;;;;;;14.80;87.90;;;;;;5091869;28;20002;-66
2021/07/30 04:44:37;;;;;;;;;;;14.80;88.00;;;;;;5091660;28;19924;-65
2021/07/30 04:47:03;;;;;;;;;;;14.70;88.50;;;;;;5091991;28;19986;-65
2021/07/30 04:49:30;;;;;;;;;;;14.70;89.00;;;;;;5091678;28;20349;-67
2021/07/30 04:51:57;;;;;;;;;;;14.70;89.20;;;;;;5092233;28;20212;-65
2021/07/30 04:54:23;;;;;;;;;;;14.70;90.30;;;;;;5095599;28;19912;-65
2021/07/30 04:56:50;;;;;;;;;;;14.70;90.50;;;;;;5095678;28;19939;-66
2021/07/30 04:59:17;;;;;;;;;;;14.80;90.30;;;;;;5095464;28;19908;-67
2021/07/30 05:01:43;;;;;;;;;;;14.80;90.30;;;;;;5095214;28;19916;-63
2021/07/30 05:04:10;;;;;;;;;;;14.80;90.30;;;;;;5095498;28;19919;-63
2021/07/30 05:06:37;;;;;;;;;;;14.70;90.60;;;;;;5095377;28;19912;-64
2021/07/30 05:09:04;;;;;;;;;;;14.70;90.70;;;;;;5095290;28;19998;-64
2021/07/30 05:11:30;;;;;;;;;;;14.70;90.80;;;;;;5094877;28;20374;-64
2021/07/30 05:13:57;;;;;;;;;;;14.70;90.90;;;;;;5095242;28;19995;-63
2021/07/30 05:16:24;;;;;;;;;;;14.70;90.90;;;;;;5095178;28;19995;-64
2021/07/30 05:18:50;;;;;;;;;;;14.80;91.20;;;;;;5094986;28;19952;-65
2021/07/30 05:21:17;;;;;;;;;;;14.70;91.40;;;;;;5094991;28;19990;-66
2021/07/30 05:23:44;;;;;;;;;;;14.60;91.80;;;;;;5094784;28;19913;-65
2021/07/30 05:26:10;;;;;;;;;;;14.70;91.70;;;;;;5094720;28;19974;-64
2021/07/30 05:28:37;;;;;;;;;;;14.70;92.00;;;;;;5094941;28;20374;-63
2021/07/30 05:31:04;;;;;;;;;;;14.70;91.70;;;;;;5094896;28;20374;-65
2021/07/30 05:33:31;;;;;;;;;;;14.80;91.50;;;;;;5093420;28;19908;-64
2021/07/30 05:35:58;;;;;;;;;;;14.70;91.40;;;;;;5094973;28;19916;-65
2021/07/30 05:38:24;;;;;;;;;;;14.70;91.30;;;;;;5094692;28;20419;-66
2021/07/30 05:40:51;;;;;;;;;;;14.70;91.50;;;;;;5094518;28;19912;-63
2021/07/30 05:43:18;;;;;;;;;;;14.70;91.80;;;;;;5094370;28;19908;-64
2021/07/30 05:45:44;;;;;;;;;;;14.70;92.00;;;;;;5094414;28;19923;-63
2021/07/30 05:48:11;;;;;;;;;;;14.60;92.30;;;;;;5094471;28;19987;-64
2021/07/30 05:50:38;;;;;;;;;;;14.60;92.50;;;;;;5094340;28;19914;-64
2021/07/30 05:53:04;;;;;;;;;;;14.70;92.50;;;;;;5092702;28;19916;-64
2021/07/30 05:55:31;;;;;;;;;;;14.60;92.70;;;;;;5094223;28;19915;-67
2021/07/30 05:58:00;;;;;;;;;;;14.60;93.00;;;;;;5094391;28;19908;-64
2021/07/30 06:00:27;;;;;;;;;;;14.50;93.20;;;;;;5094409;28;19908;-66
2021/07/30 06:02:54;;;;;;;;;;;14.50;93.50;;;;;;5093761;28;19912;-65
2021/07/30 06:05:20;;;;;;;;;;;14.50;93.50;;;;;;5093075;28;19923;-63
2021/07/30 06:07:47;;;;;;;;;;;14.50;93.90;;;;;;5094142;28;19908;-66
2021/07/30 06:10:14;;;;;;;;;;;14.50;94.20;;;;;;5094289;28;20358;-62
2021/07/30 06:12:40;;;;;;;;;;;14.50;94.40;;;;;;5093180;28;19916;-63
2021/07/30 06:15:07;;;;;;;;;;;14.40;94.40;;;;;;5092818;28;19915;-63
2021/07/30 06:17:34;;;;;;;;;;;14.40;94.70;;;;;;5093916;28;19912;-63
2021/07/30 06:20:01;;;;;;;;;;;14.40;94.80;;;;;;5073008;28;19916;-66
2021/07/30 06:22:27;;;;;;;;;;;14.40;95.00;;;;;;5073820;28;19931;-64
2021/07/30 06:24:54;;;;;;;;;;;14.50;94.90;;;;;;5073484;28;20425;-64
2021/07/30 06:27:20;;;;;;;;;;;14.50;94.90;;;;;;5072603;28;19909;-64
2021/07/30 06:29:47;;;;;;;;;;;14.50;95.00;;;;;;5073443;28;19916;-64
2021/07/30 06:32:14;;;;;;;;;;;14.50;95.00;;;;;;5073502;28;20001;-64
2021/07/30 06:34:40;;;;;;;;;;;14.50;95.10;;;;;;5073446;28;19908;-65
2021/07/30 06:37:07;;;;;;;;;;;14.40;94.90;;;;;;5073507;28;19909;-64
2021/07/30 06:39:34;;;;;;;;;;;14.40;95.10;;;;;;5072706;28;19913;-64
2021/07/30 06:42:00;;;;;;;;;;;14.40;95.10;;;;;;5073468;28;20312;-64
2021/07/30 06:44:27;;;;;;;;;;;14.40;95.20;;;;;;5073148;28;20018;-64
2021/07/30 06:46:53;;;;;;;;;;;14.30;95.60;;;;;;5073163;28;20437;-64
2021/07/30 06:49:20;;;;;;;;;;;14.30;95.30;;;;;;5073088;28;20336;-64
2021/07/30 06:51:47;;;;;;;;;;;14.30;95.40;;;;;;5070777;28;20328;-64
2021/07/30 06:54:14;;;;;;;;;;;14.20;95.40;;;;;;5071008;28;20359;-64
2021/07/30 06:56:44;;;;;;;;;;;14.10;95.70;;;;;;5070986;28;20314;-64
2021/07/30 06:59:10;;;;;;;;;;;14.10;95.50;;;;;;5070950;28;19913;-64
2021/07/30 07:01:37;;;;;;;;;;;14.10;95.70;;;;;;5070627;28;19909;-64
2021/07/30 07:04:04;;;;;;;;;;;14.00;95.90;;;;;;5069183;28;19912;-63
2021/07/30 07:06:31;;;;;;;;;;;14.00;95.90;;;;;;5070779;28;19908;-63
2021/07/30 07:08:57;;;;;;;;;;;14.00;95.80;;;;;;5070724;28;19912;-65
2021/07/30 07:11:24;;;;;;;;;;;13.90;96.10;;;;;;5070736;28;19923;-63
2021/07/30 07:13:51;;;;;;;;;;;13.90;96.10;;;;;;5070568;28;19912;-64
2021/07/30 07:16:20;;;;;;;;;;;13.80;96.10;;;;;;5070235;28;19995;-66
2021/07/30 07:18:47;;;;;;;;;;;13.80;96.40;;;;;;5070331;28;19909;-65
2021/07/30 07:21:14;;;;;;;;;;;13.70;96.50;;;;;;5070801;28;19966;-67
2021/07/30 07:23:41;;;;;;;;;;;13.70;96.80;;;;;;5070295;28;20189;-67
2021/07/30 07:26:08;;;;;;;;;;;13.70;96.80;;;;;;5102480;28;20003;-64
2021/07/30 07:28:35;;;;;;;;;;;13.60;96.90;;;;;;5070907;28;20359;-67
2021/07/30 07:31:01;;;;;;;;;;;13.60;97.30;;;;;;5070471;28;20343;-62
2021/07/30 07:33:28;;;;;;;;;;;13.60;97.50;;;;;;5070548;28;20275;-64
2021/07/30 07:35:55;;;;;;;;;;;13.50;97.50;;;;;;5070943;28;19912;-67
2021/07/30 07:38:21;;;;;;;;;;;13.50;97.60;;;;;;5070566;28;20331;-64
2021/07/30 07:40:48;;;;;;;;;;;13.40;97.60;;;;;;5070341;28;19913;-64
2021/07/30 07:43:15;;;;;;;;;;;13.40;97.70;;;;;;5070069;28;19908;-68
2021/07/30 07:45:42;;;;;;;;;;;13.40;97.70;;;;;;5070265;28;20382;-67
2021/07/30 07:48:12;;;;;;;;;;;13.40;98.00;;;;;;5069730;28;20228;-68
2021/07/30 07:50:38;;;;;;;;;;;13.30;98.00;;;;;;5070278;28;20251;-64
2021/07/30 07:53:14;;;;;;;;;;;13.30;98.20;;;;;;5070183;28;19915;-64
2021/07/30 07:55:41;;;;;;;;;;;13.30;98.30;;;;;;5069839;28;19909;-64
2021/07/30 07:58:08;;;;;;;;;;;13.20;98.50;;;;;;5069745;28;20271;-64
2021/07/30 08:00:35;;;;;;;;;;;13.20;98.50;;;;;;5070220;28;19915;-64
2021/07/30 08:03:02;;;;;;;;;;;13.10;98.80;;;;;;5070034;28;19909;-65
2021/07/30 08:05:29;;;;;;;;;;;13.10;99.10;;;;;;5070022;28;19970;-65
2021/07/30 08:07:56;;;;;;;;;;;13.10;98.60;;;;;;5070190;28;19912;-64
2021/07/30 08:10:22;;;;;;;;;;;13.00;98.60;;;;;;5069668;28;20355;-64
2021/07/30 08:12:49;;;;;;;;;;;13.10;98.60;;;;;;5069993;28;19912;-64
2021/07/30 08:15:15;;;;;;;;;;;13.10;98.40;;;;;;5069922;28;19909;-64
2021/07/30 08:17:42;;;;;;;;;;;13.00;98.30;;;;;;5069798;28;19944;-66
2021/07/30 08:20:09;;;;;;;;;;;13.10;98.30;;;;;;5069928;28;19999;-63
2021/07/30 08:22:36;;;;;;;;;;;13.10;98.00;;;;;;5069580;28;19908;-65
2021/07/30 08:25:03;;;;;;;;;;;13.10;97.70;;;;;;5069524;28;20291;-64
2021/07/30 08:27:31;;;;;;;;;;;13.00;97.90;;;;;;5072785;28;19908;-65
2021/07/30 08:29:58;;;;;;;;;;;13.10;97.40;;;;;;5073751;28;20004;-63
2021/07/30 08:32:24;;;;;;;;;;;13.10;97.60;;;;;;5073692;28;19908;-64
2021/07/30 08:34:51;;;;;;;;;;;13.10;97.20;;;;;;5073642;28;20003;-66
2021/07/30 08:37:17;;;;;;;;;;;13.10;97.20;;;;;;5073093;28;19916;-63
2021/07/30 08:39:44;;;;;;;;;;;13.10;97.20;;;;;;5073280;28;19993;-64
2021/07/30 08:42:11;;;;;;;;;;;13.20;96.90;;;;;;5073598;28;19983;-68
2021/07/30 08:44:38;;;;;;;;;;;13.10;97.00;;;;;;5073368;28;19963;-63
2021/07/30 08:47:05;;;;;;;;;;;13.00;97.10;;;;;;5073442;28;19912;-62
2021/07/30 08:49:35;;;;;;;;;;;13.00;97.40;;;;;;5071605;28;19919;-68
2021/07/30 08:52:07;;;;;;;;;;;13.00;97.00;;;;;;5073433;28;19958;-65
2021/07/30 08:54:35;;;;;;;;;;;13.00;97.30;;;;;;5073492;28;19919;-68
2021/07/30 08:57:01;;;;;;;;;;;13.00;97.50;;;;;;5073467;28;19939;-66
2021/07/30 08:59:28;;;;;;;;;;;12.90;97.10;;;;;;5073818;28;19908;-67
2021/07/30 09:01:55;;;;;;;;;;;12.90;96.70;;;;;;5073400;28;19935;-64
2021/07/30 09:04:25;;;;;;;;;;;12.90;96.50;;;;;;5073262;28;19979;-65
2021/07/30 09:06:54;;;;;;;;;;;12.90;96.30;;;;;;5075806;28;19908;-67
2021/07/30 09:09:20;;;;;;;;;;;12.90;97.00;;;;;;5075336;28;19912;-66
2021/07/30 09:11:52;;;;;;;;;;;12.80;96.60;;;;;;5075704;28;19908;-65
2021/07/30 09:14:31;;;;;;;;;;;12.70;97.00;;;;;;5075591;28;20327;-66
2021/07/30 09:16:57;;;;;;;;;;;12.70;97.60;;;;;;5075465;28;20000;-66
2021/07/30 09:19:24;;;;;;;;;;;12.70;97.40;;;;;;5075584;28;20003;-67
2021/07/30 09:22:04;;;;;;;;;;;12.60;97.40;;;;;;5076288;28;19918;-66
2021/07/30 09:24:35;;;;;;;;;;;12.50;97.40;;;;;;5076350;28;19944;-63
2021/07/30 09:27:02;;;;;;;;;;;12.30;97.60;;;;;;5074940;28;19919;-68
2021/07/30 09:29:31;;;;;;;;;;;12.30;97.80;;;;;;5074774;28;19999;-65
2021/07/30 09:32:10;;;;;;;;;;;12.30;98.20;;;;;;5074672;28;19947;-65
2021/07/30 09:34:38;;;;;;;;;;;12.20;98.10;;;;;;5074792;28;19954;-65
2021/07/30 09:37:09;;;;;;;;;;;12.20;98.40;;;;;;5074795;28;19915;-64
2021/07/30 09:39:39;;;;;;;;;;;12.20;98.00;;;;;;5073548;28;19966;-64
2021/07/30 09:42:09;;;;;;;;;;;12.10;97.90;;;;;;5074678;28;19954;-66
2021/07/30 09:44:45;;;;;;;;;;;12.10;98.00;;;;;;5073612;28;19924;-64
2021/07/30 09:47:13;;;;;;;;;;;12.10;98.40;;;;;;5074737;28;19913;-64
2021/07/30 09:49:46;;;;;;;;;;;12.10;98.30;;;;;;5074445;28;19908;-62
2021/07/30 09:52:33;;;;;;;;;;;12.10;97.90;;;;;;5074571;28;20436;-65
2021/07/30 09:55:00;;;;;;;;;;;12.10;97.70;;;;;;5074163;28;19908;-66
2021/07/30 09:57:28;;;;;;;;;;;12.00;97.30;;;;;;5074357;28;19955;-65
2021/07/30 10:00:05;;;;;;;;;;;12.00;97.30;;;;;;5073858;28;19954;-67
2021/07/30 10:02:33;;;;;;;;;;;11.90;97.30;;;;;;5073964;28;19909;-65
2021/07/30 10:05:00;;;;;;;;;;;12.00;96.50;;;;;;5080700;28;19927;-65
2021/07/30 10:07:28;;;;;;;;;;;12.10;96.10;;;;;;5074109;28;20331;-63
2021/07/30 10:12:59;;;;;;;;;;;12.20;95.80;;;;;;5061494;28;19912;-65
2021/07/30 10:15:26;;;;;;;;;;;12.20;95.60;;;;;;5073868;28;20351;-67
2021/07/30 10:17:56;;;;;;;;;;;12.20;95.10;;;;;;5073651;28;19962;-64
2021/07/30 10:20:23;;;;;;;;;;;12.20;94.30;;;;;;5074089;28;19916;-66
2021/07/30 10:22:50;;;;;;;;;;;12.30;94.60;;;;;;5073990;28;19909;-67
2021/07/30 10:25:18;;;;;;;;;;;12.30;94.20;;;;;;5073563;28;19916;-63
2021/07/30 10:27:45;;;;;;;;;;;12.30;93.50;;;;;;5073713;28;19915;-64
2021/07/30 10:30:13;;;;;;;;;;;12.40;92.70;;;;;;5073253;28;19912;-68
2021/07/30 10:32:44;;;;;;;;;;;12.40;92.80;;;;;;5073734;28;19909;-66
2021/07/30 10:35:30;;;;;;;;;;;12.40;92.30;;;;;;5073667;28;20361;-65
2021/07/30 10:38:15;;;;;;;;;;;12.40;92.90;;;;;;5073053;28;19916;-65
2021/07/30 10:40:43;;;;;;;;;;;12.30;92.30;;;;;;5073381;28;19936;-64
2021/07/30 10:43:11;;;;;;;;;;;12.20;92.20;;;;;;5072805;28;19962;-68
2021/07/30 10:45:38;;;;;;;;;;;12.10;92.50;;;;;;5073179;28;19932;-66
2021/07/30 10:48:14;;;;;;;;;;;12.10;92.50;;;;;;5073428;28;19991;-65
2021/07/30 10:50:59;;;;;;;;;;;12.00;92.40;;;;;;5072194;28;19915;-65
2021/07/30 10:53:45;;;;;;;;;;;12.10;91.00;;;;;;5073186;28;19978;-68
2021/07/30 10:56:18;;;;;;;;;;;12.20;91.60;;;;;;5072834;28;19947;-67
2021/07/30 10:58:45;;;;;;;;;;;12.30;91.30;;;;;;5072529;28;19914;-64
2021/07/30 11:01:21;;;;;;;;;;;12.20;92.00;;;;;;5073007;28;19939;-64
2021/07/30 11:03:51;;;;;;;;;;;12.20;91.40;;;;;;5072784;28;19920;-67
2021/07/30 11:06:21;;;;;;;;;;;12.10;91.40;;;;;;5072946;28;20373;-64
2021/07/30 11:09:00;;;;;;;;;;;12.00;90.60;;;;;;5072871;28;19914;-67
2021/07/30 11:11:42;;;;;;;;;;;11.90;90.80;;;;;;5073026;28;20278;-64
2021/07/30 11:14:11;;;;;;;;;;;11.80;90.60;;;;;;5072426;28;20363;-63
2021/07/30 11:16:38;;;;;;;;;;;11.80;90.10;;;;;;5072933;28;20270;-64
2021/07/30 11:19:05;;;;;;;;;;;11.70;89.40;;;;;;5073009;28;20388;-64
2021/07/30 11:21:32;;;;;;;;;;;11.80;88.10;;;;;;5072479;28;20262;-63
2021/07/30 11:23:59;;;;;;;;;;;11.80;88.70;;;;;;5072730;28;20267;-63
2021/07/30 11:26:27;;;;;;;;;;;11.90;90.00;;;;;;5072748;28;19908;-64
2021/07/30 11:28:56;;;;;;;;;;;12.00;87.60;;;;;;5072299;28;19943;-65
2021/07/30 11:31:22;;;;;;;;;;;12.10;86.90;;;;;;5072599;28;19932;-64
2021/07/30 11:33:49;;;;;;;;;;;12.20;86.70;;;;;;5072396;28;19916;-64
2021/07/30 11:36:16;;;;;;;;;;;12.30;86.40;;;;;;5072588;28;19913;-63
2021/07/30 11:38:50;;;;;;;;;;;12.40;86.30;;;;;;5072421;28;19978;-65
2021/07/30 11:41:17;;;;;;;;;;;12.50;86.30;;;;;;5072530;28;19916;-64
2021/07/30 11:44:03;;;;;;;;;;;12.50;86.10;;;;;;5071496;28;19978;-63
2021/07/30 11:46:30;;;;;;;;;;;12.50;85.70;;;;;;5072481;28;20282;-63
2021/07/30 11:48:57;;;;;;;;;;;12.60;86.10;;;;;;5072361;28;19909;-64
2021/07/30 11:51:24;;;;;;;;;;;12.60;86.30;;;;;;5072411;28;19948;-63
2021/07/30 11:53:52;;;;;;;;;;;12.60;86.30;;;;;;5072034;28;19908;-64
2021/07/30 11:56:19;;;;;;;;;;;12.60;86.30;;;;;;5072386;28;20363;-64
2021/07/30 11:58:59;;;;;;;;;;;12.60;86.10;;;;;;5071781;28;20451;-63
2021/07/30 12:01:30;;;;;;;;;;;12.60;85.60;;;;;;5073626;28;20006;-63
2021/07/30 12:04:05;;;;;;;;;;;12.70;85.80;;;;;;5076520;28;20377;-63
2021/07/30 12:06:36;;;;;;;;;;;12.80;85.20;;;;;;5076501;28;19924;-63
2021/07/30 12:09:03;;;;;;;;;;;12.80;85.60;;;;;;5076403;28;20011;-63
2021/07/30 12:11:29;;;;;;;;;;;12.90;84.90;;;;;;5076266;28;19924;-64
2021/07/30 12:13:56;;;;;;;;;;;12.90;84.40;;;;;;5075812;28;19908;-65
2021/07/30 12:16:23;;;;;;;;;;;12.90;83.80;;;;;;5076383;28;19997;-64
2021/07/30 12:18:49;;;;;;;;;;;12.90;85.40;;;;;;5076361;28;19908;-64
2021/07/30 12:21:16;;;;;;;;;;;12.90;84.40;;;;;;5076186;28;19915;-64
2021/07/30 12:23:43;;;;;;;;;;;12.90;84.50;;;;;;5075729;28;19908;-62
2021/07/30 12:26:28;;;;;;;;;;;12.90;84.40;;;;;;5075344;28;20303;-63
2021/07/30 12:28:55;;;;;;;;;;;12.90;85.10;;;;;;5075407;28;19989;-63
2021/07/30 12:31:22;;;;;;;;;;;12.80;84.00;;;;;;5075887;28;19940;-66
2021/07/30 12:33:49;;;;;;;;;;;12.80;83.90;;;;;;5075660;28;19912;-66
2021/07/30 12:36:16;;;;;;;;;;;12.80;83.50;;;;;;5076252;28;19909;-64
2021/07/30 12:39:03;;;;;;;;;;;12.80;83.40;;;;;;5075639;28;19908;-63
2021/07/30 12:41:30;;;;;;;;;;;12.80;83.60;;;;;;5105740;28;19914;-64
2021/07/30 12:44:08;;;;;;;;;;;12.80;82.80;;;;;;5075577;28;19920;-65
2021/07/30 12:46:36;;;;;;;;;;;12.90;83.20;;;;;;5075659;28;20245;-64
2021/07/30 12:49:07;;;;;;;;;;;12.90;82.60;;;;;;5075426;28;19912;-65
2021/07/30 12:51:34;;;;;;;;;;;12.90;83.10;;;;;;5075136;28;20383;-65
2021/07/30 12:54:02;;;;;;;;;;;12.90;82.40;;;;;;5075487;28;19915;-66
2021/07/30 12:56:48;;;;;;;;;;;12.90;81.30;;;;;;5074857;28;19959;-67
2021/07/30 12:59:15;;;;;;;;;;;12.90;81.30;;;;;;5075537;28;19908;-63
2021/07/30 13:01:42;;;;;;;;;;;13.00;80.40;;;;;;5075030;28;19908;-65
2021/07/30 13:04:10;;;;;;;;;;;12.90;81.10;;;;;;5075148;28;19912;-67
2021/07/30 13:06:38;;;;;;;;;;;12.90;79.70;;;;;;5075346;28;19909;-66
2021/07/30 13:09:06;;;;;;;;;;;12.90;82.70;;;;;;5074974;28;19909;-67
2021/07/30 13:11:32;;;;;;;;;;;13.00;81.20;;;;;;5074488;28;19952;-66
2021/07/30 13:13:59;;;;;;;;;;;12.90;79.80;;;;;;5073998;28;19909;-65
2021/07/30 13:16:26;;;;;;;;;;;12.90;82.00;;;;;;5075183;28;19908;-67
2021/07/30 13:18:52;;;;;;;;;;;12.80;80.90;;;;;;5075012;28;19955;-65
2021/07/30 13:21:19;;;;;;;;;;;12.80;79.80;;;;;;5075167;28;19915;-67
2021/07/30 13:23:46;;;;;;;;;;;12.60;80.30;;;;;;5074549;28;19908;-66
2021/07/30 13:26:12;;;;;;;;;;;12.50;81.60;;;;;;5074352;28;20309;-64
2021/07/30 13:28:39;;;;;;;;;;;12.40;81.40;;;;;;5074816;28;20012;-64
2021/07/30 13:31:05;;;;;;;;;;;12.30;81.80;;;;;;5075082;28;19912;-64
2021/07/30 13:33:32;;;;;;;;;;;12.30;80.40;;;;;;5074860;28;19908;-64
2021/07/30 13:36:00;;;;;;;;;;;12.30;81.00;;;;;;5074783;28;19908;-66
2021/07/30 13:38:27;;;;;;;;;;;12.20;81.20;;;;;;5074533;28;19920;-63
2021/07/30 13:40:55;;;;;;;;;;;12.20;81.00;;;;;;5074342;28;19909;-65
2021/07/30 13:43:24;;;;;;;;;;;12.20;81.00;;;;;;5074563;28;20317;-66
2021/07/30 13:45:51;;;;;;;;;;;12.20;81.60;;;;;;5074430;28;20337;-68
2021/07/30 13:48:18;;;;;;;;;;;12.20;81.90;;;;;;5074533;28;19916;-64
2021/07/30 13:50:45;;;;;;;;;;;12.20;80.70;;;;;;5074692;28;19936;-64
2021/07/30 13:53:11;;;;;;;;;;;12.20;79.60;;;;;;5074343;28;20381;-67
2021/07/30 13:55:38;;;;;;;;;;;12.20;79.00;;;;;;5073588;28;19936;-68
2021/07/30 13:58:05;;;;;;;;;;;12.20;79.50;;;;;;5074072;28;19966;-66
2021/07/30 14:00:31;;;;;;;;;;;12.20;81.70;;;;;;5074304;28;20268;-67
2021/07/30 14:02:58;;;;;;;;;;;12.10;81.70;;;;;;5074419;28;20382;-67
2021/07/30 14:05:24;;;;;;;;;;;12.10;82.00;;;;;;5074226;28;19917;-67
2021/07/30 14:07:51;;;;;;;;;;;12.10;81.80;;;;;;5073953;28;19915;-66
2021/07/30 14:10:18;;;;;;;;;;;12.10;81.10;;;;;;5074063;28;19916;-68
2021/07/30 14:12:45;;;;;;;;;;;12.10;82.00;;;;;;5073523;28;19908;-67
2021/07/30 14:15:15;;;;;;;;;;;12.00;82.30;;;;;;5074033;28;19909;-65
2021/07/30 14:17:42;;;;;;;;;;;11.80;81.30;;;;;;5073861;28;19952;-66
2021/07/30 14:20:10;;;;;;;;;;;11.60;81.70;;;;;;5074024;28;19909;-66
2021/07/30 14:22:36;;;;;;;;;;;11.50;82.00;;;;;;5073806;28;19915;-65
2021/07/30 14:25:03;;;;;;;;;;;11.40;81.50;;;;;;5073429;28;19923;-65